Time,TemperatureF,DewpointF,PressureIn,WindDirection,WindDirectionDegrees,WindSpeedMPH,WindSpeedGustMPH,Humidity,HourlyPrecipIn,Conditions,Clouds,dailyrainin,SoftwareType,DateUTC
2013-03-17 00:00:00,51.4,35.8,29.97,SE,135,2.2,3.1,55,0.00,,,0.00,VWS V14.01,2013-03-17 04:00:00,
2013-03-17 00:05:00,51.2,35.6,29.97,SSE,158,0.0,3.1,55,0.00,,,0.00,VWS V14.01,2013-03-17 04:05:00,
2013-03-17 00:10:00,51.0,35.9,29.97,West,270,0.0,3.1,56,0.00,,,0.00,VWS V14.01,2013-03-17 04:10:00,
2013-03-17 00:15:00,50.8,35.3,29.97,SSE,158,2.2,2.5,55,0.00,,,0.00,VWS V14.01,2013-03-17 04:15:00,
2013-03-17 00:20:00,50.5,35.8,29.97,SSE,158,2.7,3.1,57,0.00,,,0.00,VWS V14.01,2013-03-17 04:20:00,
2013-03-17 00:25:00,50.8,35.7,29.94,SSE,158,3.6,4.7,56,0.00,,,0.00,VWS V14.01,2013-03-17 04:25:00,
2013-03-17 00:30:00,50.7,36.0,29.94,SSE,158,0.0,2.0,57,0.00,,,0.00,VWS V14.01,2013-03-17 04:30:00,
2013-03-17 00:35:00,50.3,36.1,29.94,SSW,202,0.0,2.0,58,0.00,,,0.00,VWS V14.01,2013-03-17 04:35:00,
2013-03-17 00:40:00,50.1,36.8,29.94,South,180,1.6,2.5,60,0.00,,,0.00,VWS V14.01,2013-03-17 04:40:00,
2013-03-17 00:45:00,49.9,36.6,29.94,NW,315,1.1,1.1,60,0.00,,,0.00,VWS V14.01,2013-03-17 04:45:00,
2013-03-17 00:50:00,49.8,36.9,29.94,WSW,248,0.0,1.3,61,0.00,,,0.00,VWS V14.01,2013-03-17 04:50:00,
2013-03-17 00:55:00,49.8,37.3,29.97,SSE,158,1.1,1.6,62,0.00,,,0.00,VWS V14.01,2013-03-17 04:55:00,
2013-03-17 01:00:00,49.8,37.3,29.97,South,180,0.0,0.0,62,0.00,,,0.00,VWS V14.01,2013-03-17 05:00:00,
2013-03-17 01:05:00,50.7,38.1,29.97,SW,225,1.3,1.3,62,0.00,,,0.00,VWS V14.01,2013-03-17 05:05:00,
2013-03-17 01:10:00,50.7,38.1,29.97,NNW,338,0.9,1.3,62,0.00,,,0.00,VWS V14.01,2013-03-17 05:10:00,
2013-03-17 01:15:00,50.7,38.1,29.97,WNW,292,0.0,0.0,62,0.00,,,0.00,VWS V14.01,2013-03-17 05:15:00,
2013-03-17 01:20:00,50.7,38.1,29.97,West,270,0.0,2.2,62,0.00,,,0.00,VWS V14.01,2013-03-17 05:20:00,
2013-03-17 01:25:00,50.7,38.1,29.97,WNW,292,0.0,2.5,62,0.00,,,0.00,VWS V14.01,2013-03-17 05:25:00,
2013-03-17 01:30:00,50.7,38.1,29.97,WNW,292,2.7,2.9,62,0.00,,,0.00,VWS V14.01,2013-03-17 05:30:00,
2013-03-17 01:35:00,50.7,38.1,29.97,WSW,248,0.0,2.9,62,0.00,,,0.00,VWS V14.01,2013-03-17 05:35:00,
2013-03-17 01:40:00,50.8,37.9,29.94,SE,135,0.0,2.9,61,0.00,,,0.00,VWS V14.01,2013-03-17 05:40:00,
2013-03-17 01:45:00,50.8,37.9,29.94,SSW,202,0.0,0.0,61,0.00,,,0.00,VWS V14.01,2013-03-17 05:45:00,
2013-03-17 01:50:00,50.8,38.3,29.94,SSW,202,0.0,2.0,62,0.00,,,0.00,VWS V14.01,2013-03-17 05:50:00,
2013-03-17 01:55:00,51.4,38.4,29.94,SSW,202,0.9,2.9,61,0.00,,,0.00,VWS V14.01,2013-03-17 05:55:00,
2013-03-17 02:00:00,51.2,38.2,29.94,SSW,202,0.0,2.9,61,0.00,,,0.00,VWS V14.01,2013-03-17 06:00:00,
2013-03-17 02:05:00,51.0,38.0,29.94,SSW,202,0.0,2.9,61,0.00,,,0.00,VWS V14.01,2013-03-17 06:05:00,
2013-03-17 02:10:00,50.8,38.3,29.97,SSW,202,0.0,2.9,62,0.00,,,0.00,VWS V14.01,2013-03-17 06:10:00,
2013-03-17 02:15:00,50.5,38.4,29.97,SSW,202,0.0,0.0,63,0.00,,,0.00,VWS V14.01,2013-03-17 06:15:00,
2013-03-17 02:20:00,50.5,38.4,29.97,SSE,158,2.7,2.7,63,0.00,,,0.00,VWS V14.01,2013-03-17 06:20:00,
2013-03-17 02:25:00,51.9,38.9,29.94,SSE,158,2.2,3.6,61,0.00,,,0.00,VWS V14.01,2013-03-17 06:25:00,
2013-03-17 02:30:00,51.4,38.4,29.94,SSE,158,2.2,3.6,61,0.00,,,0.00,VWS V14.01,2013-03-17 06:30:00,
2013-03-17 02:35:00,50.8,38.3,29.94,WNW,292,0.0,3.6,62,0.00,,,0.00,VWS V14.01,2013-03-17 06:35:00,
2013-03-17 02:40:00,50.1,37.6,29.97,WNW,292,0.9,3.6,62,0.00,,,0.00,VWS V14.01,2013-03-17 06:40:00,
2013-03-17 02:45:00,49.9,37.5,29.97,SW,225,0.0,0.0,62,0.00,,,0.00,VWS V14.01,2013-03-17 06:45:00,
2013-03-17 02:50:00,49.4,37.3,29.97,WSW,248,0.0,0.0,63,0.00,,,0.00,VWS V14.01,2013-03-17 06:50:00,
2013-03-17 02:55:00,49.6,37.5,29.97,South,180,2.0,2.2,63,0.00,,,0.00,VWS V14.01,2013-03-17 06:55:00,
2013-03-17 03:00:00,50.1,38.0,29.97,South,180,2.7,3.1,63,0.00,,,0.00,VWS V14.01,2013-03-17 07:00:00,
2013-03-17 03:05:00,50.3,37.8,29.97,WSW,248,1.3,3.1,62,0.00,,,0.00,VWS V14.01,2013-03-17 07:05:00,
2013-03-17 03:10:00,50.8,37.9,29.97,South,180,1.6,3.1,61,0.00,,,0.00,VWS V14.01,2013-03-17 07:10:00,
2013-03-17 03:15:00,50.8,38.3,29.97,West,270,0.0,0.0,62,0.00,,,0.00,VWS V14.01,2013-03-17 07:15:00,
2013-03-17 03:20:00,50.5,38.0,29.97,ENE,68,0.0,2.5,62,0.00,,,0.00,VWS V14.01,2013-03-17 07:20:00,
2013-03-17 03:25:00,50.1,37.6,29.97,South,180,2.0,3.1,62,0.00,,,0.00,VWS V14.01,2013-03-17 07:25:00,
2013-03-17 03:30:00,50.5,38.0,29.97,South,180,0.0,1.1,62,0.00,,,0.00,VWS V14.01,2013-03-17 07:30:00,
2013-03-17 03:35:00,50.5,38.0,29.97,SSW,202,0.0,1.1,62,0.00,,,0.00,VWS V14.01,2013-03-17 07:35:00,
2013-03-17 03:40:00,50.3,37.8,29.97,SW,225,0.0,2.0,62,0.00,,,0.00,VWS V14.01,2013-03-17 07:40:00,
2013-03-17 03:45:00,49.9,37.5,29.97,SSW,202,1.3,1.3,62,0.00,,,0.00,VWS V14.01,2013-03-17 07:45:00,
2013-03-17 03:50:00,50.8,37.9,29.97,SW,225,1.6,2.9,61,0.00,,,0.00,VWS V14.01,2013-03-17 07:50:00,
2013-03-17 03:55:00,50.8,37.5,29.97,SSW,202,0.0,2.9,60,0.00,,,0.00,VWS V14.01,2013-03-17 07:55:00,
2013-03-17 04:00:00,50.8,37.5,29.97,SSW,202,0.9,2.0,60,0.00,,,0.00,VWS V14.01,2013-03-17 08:00:00,
2013-03-17 04:05:00,50.8,37.5,29.97,NNE,22,1.3,2.0,60,0.00,,,0.00,VWS V14.01,2013-03-17 08:05:00,
2013-03-17 04:10:00,50.3,37.0,29.97,SSE,158,0.0,2.0,60,0.00,,,0.00,VWS V14.01,2013-03-17 08:10:00,
2013-03-17 04:15:00,50.1,37.2,29.97,South,180,2.9,2.9,61,0.00,,,0.00,VWS V14.01,2013-03-17 08:15:00,
2013-03-17 04:20:00,49.9,37.0,29.97,South,180,2.9,3.1,61,0.00,,,0.00,VWS V14.01,2013-03-17 08:20:00,
2013-03-17 04:25:00,50.1,37.2,29.97,SE,135,2.5,3.1,61,0.00,,,0.00,VWS V14.01,2013-03-17 08:25:00,
2013-03-17 04:30:00,50.3,37.4,29.97,South,180,0.0,3.1,61,0.00,,,0.00,VWS V14.01,2013-03-17 08:30:00,
2013-03-17 04:35:00,49.9,37.0,29.97,SE,135,0.0,3.1,61,0.00,,,0.00,VWS V14.01,2013-03-17 08:35:00,
2013-03-17 04:40:00,49.6,36.7,29.97,East,90,0.0,3.1,61,0.00,,,0.00,VWS V14.01,2013-03-17 08:40:00,
2013-03-17 04:45:00,49.6,36.7,29.97,South,180,0.0,2.2,61,0.00,,,0.00,VWS V14.01,2013-03-17 08:45:00,
2013-03-17 04:50:00,49.6,36.7,29.97,ESE,112,2.5,4.3,61,0.00,,,0.00,VWS V14.01,2013-03-17 08:50:00,
2013-03-17 04:55:00,49.4,36.5,29.94,WNW,292,0.0,4.3,61,0.00,,,0.00,VWS V14.01,2013-03-17 08:55:00,
2013-03-17 05:00:00,49.4,36.5,29.94,SSE,158,1.6,4.3,61,0.00,,,0.00,VWS V14.01,2013-03-17 09:00:00,
2013-03-17 05:05:00,49.2,36.3,29.94,SSE,158,2.0,2.0,61,0.00,,,0.00,VWS V14.01,2013-03-17 09:05:00,
2013-03-17 05:10:00,48.3,35.9,29.94,North,0,1.3,2.7,62,0.00,,,0.00,VWS V14.01,2013-03-17 09:10:00,
2013-03-17 05:15:00,47.8,35.8,29.97,South,180,0.0,0.0,63,0.00,,,0.00,VWS V14.01,2013-03-17 09:15:00,
2013-03-17 05:20:00,47.2,36.5,29.97,South,180,0.0,2.0,66,0.00,,,0.00,VWS V14.01,2013-03-17 09:20:00,
2013-03-17 05:25:00,47.0,36.3,29.97,WNW,292,0.0,2.0,66,0.00,,,0.00,VWS V14.01,2013-03-17 09:25:00,
2013-03-17 05:30:00,46.2,36.6,29.97,WSW,248,0.0,0.0,69,0.00,,,0.00,VWS V14.01,2013-03-17 09:30:00,
2013-03-17 05:35:00,46.0,36.8,29.97,SSE,158,0.0,2.0,70,0.00,,,0.00,VWS V14.01,2013-03-17 09:35:00,
2013-03-17 05:40:00,46.0,36.8,29.94,South,180,0.0,2.0,70,0.00,,,0.00,VWS V14.01,2013-03-17 09:40:00,
2013-03-17 05:45:00,45.2,36.8,29.94,WNW,292,2.0,2.7,72,0.00,,,0.00,VWS V14.01,2013-03-17 09:45:00,
2013-03-17 05:50:00,45.2,36.8,29.94,SSE,158,0.0,2.7,72,0.00,,,0.00,VWS V14.01,2013-03-17 09:50:00,
2013-03-17 05:55:00,44.7,36.6,29.97,ESE,112,0.0,2.7,73,0.00,,,0.00,VWS V14.01,2013-03-17 09:55:00,
2013-03-17 06:00:00,44.5,38.1,29.97,West,270,0.0,0.0,78,0.00,,,0.00,VWS V14.01,2013-03-17 10:00:00,
2013-03-17 06:05:00,44.3,37.6,29.97,SSW,202,0.0,0.0,77,0.00,,,0.00,VWS V14.01,2013-03-17 10:05:00,
2013-03-17 06:10:00,44.0,37.3,29.97,WNW,292,0.0,0.0,77,0.00,,,0.00,VWS V14.01,2013-03-17 10:10:00,
2013-03-17 06:15:00,44.2,38.4,29.97,SSW,202,0.0,0.0,80,0.00,,,0.00,VWS V14.01,2013-03-17 10:15:00,
2013-03-17 06:20:00,44.3,39.5,29.97,South,180,0.0,3.6,83,0.00,,,0.00,VWS V14.01,2013-03-17 10:20:00,
2013-03-17 06:25:00,44.0,38.5,29.97,SSE,158,3.1,3.6,81,0.00,,,0.00,VWS V14.01,2013-03-17 10:25:00,
2013-03-17 06:30:00,45.2,40.1,29.97,SSE,158,1.3,1.3,82,0.00,,,0.00,VWS V14.01,2013-03-17 10:30:00,
2013-03-17 06:35:00,45.6,40.1,29.97,SSE,158,2.2,2.2,81,0.00,,,0.00,VWS V14.01,2013-03-17 10:35:00,
2013-03-17 06:40:00,45.2,38.2,29.97,SE,135,0.0,2.2,76,0.00,,,0.00,VWS V14.01,2013-03-17 10:40:00,
2013-03-17 06:45:00,44.9,37.1,29.97,WSW,248,0.0,2.2,74,0.00,,,0.00,VWS V14.01,2013-03-17 10:45:00,
2013-03-17 06:50:00,45.4,40.0,29.97,South,180,0.0,2.2,81,0.00,,,0.00,VWS V14.01,2013-03-17 10:50:00,
2013-03-17 06:55:00,45.8,39.7,29.97,SSW,202,1.1,2.5,79,0.00,,,0.00,VWS V14.01,2013-03-17 10:55:00,
2013-03-17 07:00:00,46.0,38.8,29.97,ESE,112,2.0,2.5,76,0.00,,,0.00,VWS V14.01,2013-03-17 11:00:00,
2013-03-17 07:05:00,45.2,37.1,29.97,West,270,2.5,2.5,73,0.00,,,0.00,VWS V14.01,2013-03-17 11:05:00,
2013-03-17 07:10:00,45.2,38.8,29.97,SSE,158,0.0,2.5,78,0.00,,,0.00,VWS V14.01,2013-03-17 11:10:00,
2013-03-17 07:15:00,45.2,39.1,29.97,SSW,202,0.0,0.0,79,0.00,,,0.00,VWS V14.01,2013-03-17 11:15:00,
2013-03-17 07:20:00,45.2,39.1,29.97,SSW,202,0.0,0.0,79,0.00,,,0.00,VWS V14.01,2013-03-17 11:20:00,
2013-03-17 07:25:00,45.2,39.1,29.97,SSW,202,0.0,0.0,79,0.00,,,0.00,VWS V14.01,2013-03-17 11:25:00,
2013-03-17 07:30:00,45.2,39.1,29.97,SE,135,0.0,0.0,79,0.00,,,0.00,VWS V14.01,2013-03-17 11:30:00,
2013-03-17 07:35:00,45.6,39.8,29.97,SE,135,0.0,0.0,80,0.00,,,0.00,VWS V14.01,2013-03-17 11:35:00,
2013-03-17 07:40:00,46.3,39.9,29.97,SSE,158,1.1,2.5,78,0.00,,,0.00,VWS V14.01,2013-03-17 11:40:00,
2013-03-17 07:45:00,46.7,38.9,29.97,SSE,158,3.4,3.4,74,0.00,,,0.00,VWS V14.01,2013-03-17 11:45:00,
2013-03-17 07:50:00,46.5,38.7,29.97,South,180,0.0,3.4,74,0.00,,,0.00,VWS V14.01,2013-03-17 11:50:00,
2013-03-17 07:55:00,46.5,38.3,29.97,South,180,0.0,3.4,73,0.00,,,0.00,VWS V14.01,2013-03-17 11:55:00,
2013-03-17 08:00:00,46.9,38.3,29.97,WNW,292,0.0,4.3,72,0.00,,,0.00,VWS V14.01,2013-03-17 12:00:00,
2013-03-17 08:05:00,46.9,38.3,29.97,SSE,158,2.7,4.3,72,0.00,,,0.00,VWS V14.01,2013-03-17 12:05:00,
2013-03-17 08:10:00,46.9,38.7,29.97,SSE,158,1.3,4.3,73,0.00,,,0.00,VWS V14.01,2013-03-17 12:10:00,
2013-03-17 08:15:00,46.9,38.7,29.97,SSW,202,0.0,0.0,73,0.00,,,0.00,VWS V14.01,2013-03-17 12:15:00,
2013-03-17 08:29:00,47.4,38.8,30.00,SE,135,0.0,1.3,72,0.00,,,0.00,VWS V14.01,2013-03-17 12:29:00,
2013-03-17 08:30:00,47.6,39.0,30.00,SE,135,1.3,2.5,72,0.00,,,0.00,VWS V14.01,2013-03-17 12:30:00,
2013-03-17 08:34:00,47.4,38.5,30.00,NW,315,1.3,1.3,71,0.00,,,0.00,VWS V14.01,2013-03-17 12:34:00,
2013-03-17 08:39:00,47.4,39.5,29.97,South,180,1.6,2.0,74,0.00,,,0.00,VWS V14.01,2013-03-17 12:39:00,
2013-03-17 08:44:00,47.6,40.1,29.97,South,180,0.0,0.0,75,0.00,,,0.00,VWS V14.01,2013-03-17 12:44:00,
2013-03-17 08:45:00,47.6,40.1,29.97,South,180,0.0,2.5,75,0.00,,,0.00,VWS V14.01,2013-03-17 12:45:00,
2013-03-17 08:49:00,48.5,40.9,29.97,SSE,158,1.3,3.1,75,0.00,,,0.00,VWS V14.01,2013-03-17 12:49:00,
2013-03-17 08:54:00,48.1,39.9,29.97,NNW,338,0.0,3.1,73,0.00,,,0.00,VWS V14.01,2013-03-17 12:54:00,
2013-03-17 08:59:00,49.4,41.5,29.97,SSE,158,2.5,2.5,74,0.00,,,0.00,VWS V14.01,2013-03-17 12:59:00,
2013-03-17 09:00:00,49.0,41.1,29.97,SSE,158,2.2,3.1,74,0.00,,,0.00,VWS V14.01,2013-03-17 13:00:00,
2013-03-17 09:04:00,50.3,41.6,29.97,SSE,158,0.9,2.5,72,0.00,,,0.00,VWS V14.01,2013-03-17 13:04:00,
2013-03-17 09:08:00,51.0,42.0,29.97,SSE,158,0.0,0.0,71,0.00,,,0.00,VWS V14.01,2013-03-17 13:08:00,
2013-03-17 09:09:00,51.2,42.1,30.00,SSE,158,0.0,0.0,71,0.00,,,0.00,VWS V14.01,2013-03-17 13:09:00,
2013-03-17 09:10:00,51.2,42.1,30.00,NNW,338,1.3,1.3,71,0.00,,,0.00,VWS V14.01,2013-03-17 13:10:00,
2013-03-17 09:11:00,51.2,41.8,30.00,NNE,22,0.0,1.3,70,0.00,,,0.00,VWS V14.01,2013-03-17 13:11:00,
2013-03-17 09:12:00,51.5,42.1,30.00,NNE,22,0.0,0.0,70,0.00,,,0.00,VWS V14.01,2013-03-17 13:12:00,
2013-03-17 09:13:00,51.9,42.5,30.00,ENE,68,0.0,0.0,70,0.00,,,0.00,VWS V14.01,2013-03-17 13:13:00,
2013-03-17 09:15:00,52.3,42.4,30.00,ENE,68,0.0,0.0,69,0.00,,,0.00,VWS V14.01,2013-03-17 13:15:00,
2013-03-17 09:18:00,52.8,41.8,30.00,NE,45,1.6,1.6,66,0.00,,,0.00,VWS V14.01,2013-03-17 13:18:00,
2013-03-17 09:23:00,54.6,42.3,30.00,NE,45,1.6,2.0,63,0.00,,,0.00,VWS V14.01,2013-03-17 13:23:00,
2013-03-17 09:28:00,55.7,42.9,30.00,NE,45,0.0,2.0,62,0.00,,,0.00,VWS V14.01,2013-03-17 13:28:00,
2013-03-17 09:30:00,56.0,43.2,30.00,East,90,0.0,2.0,62,0.00,,,0.00,VWS V14.01,2013-03-17 13:30:00,
2013-03-17 09:33:00,57.0,43.2,30.00,NE,45,0.0,2.5,60,0.00,,,0.00,VWS V14.01,2013-03-17 13:33:00,
2013-03-17 09:38:00,57.7,42.1,30.00,WNW,292,0.0,2.5,56,0.00,,,0.00,VWS V14.01,2013-03-17 13:38:00,
2013-03-17 09:43:00,58.8,42.2,30.00,NNE,22,1.3,2.5,54,0.00,,,0.00,VWS V14.01,2013-03-17 13:43:00,
2013-03-17 09:48:00,59.3,41.7,30.00,NNE,22,1.3,2.5,52,0.00,,,0.00,VWS V14.01,2013-03-17 13:48:00,
2013-03-17 09:53:00,59.5,41.8,30.00,WNW,292,2.5,3.4,52,0.00,,,0.00,VWS V14.01,2013-03-17 13:53:00,
2013-03-17 09:58:00,60.0,41.8,30.00,SE,135,1.6,3.4,51,0.00,,,0.00,VWS V14.01,2013-03-17 13:58:00,
2013-03-17 10:00:00,60.2,42.0,30.00,SE,135,1.6,3.4,51,0.00,,,0.00,VWS V14.01,2013-03-17 14:00:00,
2013-03-17 10:03:00,60.2,41.5,30.00,NW,315,2.0,2.0,50,0.00,,,0.00,VWS V14.01,2013-03-17 14:03:00,
2013-03-17 10:08:00,59.8,41.7,30.00,SE,135,2.5,2.7,51,0.00,,,0.00,VWS V14.01,2013-03-17 14:08:00,
2013-03-17 10:13:00,59.8,42.2,30.00,WNW,292,0.0,2.9,52,0.00,,,0.00,VWS V14.01,2013-03-17 14:13:00,
2013-03-17 10:15:00,59.8,42.2,30.00,WNW,292,0.0,2.9,52,0.00,,,0.00,VWS V14.01,2013-03-17 14:15:00,
2013-03-17 10:18:00,59.7,41.5,30.00,SE,135,2.5,2.9,51,0.00,,,0.00,VWS V14.01,2013-03-17 14:18:00,
2013-03-17 10:23:00,59.7,41.5,30.00,SE,135,0.0,2.9,51,0.00,,,0.00,VWS V14.01,2013-03-17 14:23:00,
2013-03-17 10:28:00,59.8,41.7,30.00,East,90,1.3,2.9,51,0.00,,,0.00,VWS V14.01,2013-03-17 14:28:00,
2013-03-17 10:33:00,60.2,42.0,30.00,NE,45,2.2,2.9,51,0.00,,,0.00,VWS V14.01,2013-03-17 14:33:00,
2013-03-17 10:38:00,60.9,42.7,30.00,NE,45,2.2,2.9,51,0.00,,,0.00,VWS V14.01,2013-03-17 14:38:00,
2013-03-17 10:43:00,61.6,42.8,30.00,NE,45,2.2,2.9,50,0.00,,,0.00,VWS V14.01,2013-03-17 14:43:00,
2013-03-17 10:45:00,61.6,42.8,30.00,NE,45,2.2,2.9,50,0.00,,,0.00,VWS V14.01,2013-03-17 14:45:00,
2013-03-17 10:48:00,62.0,42.6,30.00,NE,45,2.2,3.4,49,0.00,,,0.00,VWS V14.01,2013-03-17 14:48:00,
2013-03-17 10:53:00,62.9,43.5,30.00,North,0,1.6,3.4,49,0.00,,,0.00,VWS V14.01,2013-03-17 14:53:00,
2013-03-17 10:58:00,62.3,43.0,30.00,North,0,1.6,3.4,49,0.00,,,0.00,VWS V14.01,2013-03-17 14:58:00,
2013-03-17 11:00:00,62.3,43.0,30.00,North,0,1.6,3.4,49,0.00,,,0.00,VWS V14.01,2013-03-17 15:00:00,
2013-03-17 11:03:00,62.3,43.0,30.00,North,0,1.6,1.6,49,0.00,,,0.00,VWS V14.01,2013-03-17 15:03:00,
2013-03-17 11:08:00,63.4,44.0,30.00,North,0,1.6,1.6,49,0.00,,,0.00,VWS V14.01,2013-03-17 15:08:00,
2013-03-17 11:13:00,64.2,44.1,29.97,North,0,1.6,1.6,48,0.00,,,0.00,VWS V14.01,2013-03-17 15:13:00,
2013-03-17 11:18:00,64.5,44.4,29.97,North,0,1.6,1.6,48,0.00,,,0.00,VWS V14.01,2013-03-17 15:18:00,
2013-03-17 11:23:00,64.5,44.4,29.97,North,0,1.6,1.6,48,0.00,,,0.00,VWS V14.01,2013-03-17 15:23:00,
2013-03-17 11:28:00,64.7,44.6,30.00,North,0,1.6,1.6,48,0.00,,,0.00,VWS V14.01,2013-03-17 15:28:00,
2013-03-17 11:30:00,64.7,44.6,30.00,North,0,1.6,1.6,48,0.00,,,0.00,VWS V14.01,2013-03-17 15:30:00,
2013-03-17 11:33:00,64.9,44.2,30.00,North,0,1.6,1.6,47,0.00,,,0.00,VWS V14.01,2013-03-17 15:33:00,
2013-03-17 11:38:00,64.7,44.0,30.00,North,0,1.6,1.6,47,0.00,,,0.00,VWS V14.01,2013-03-17 15:38:00,
2013-03-17 11:43:00,64.7,44.0,30.00,North,0,1.6,1.6,47,0.00,,,0.00,VWS V14.01,2013-03-17 15:43:00,
2013-03-17 11:45:00,64.7,44.6,30.00,North,0,1.6,1.6,48,0.00,,,0.00,VWS V14.01,2013-03-17 15:45:00,
2013-03-17 11:48:00,64.2,43.5,30.00,North,0,1.6,1.6,47,0.00,,,0.00,VWS V14.01,2013-03-17 15:48:00,
2013-03-17 11:53:00,64.2,43.5,30.00,North,0,1.6,1.6,47,0.00,,,0.00,VWS V14.01,2013-03-17 15:53:00,
2013-03-17 11:58:00,64.9,43.6,30.00,North,0,1.6,1.6,46,0.00,,,0.00,VWS V14.01,2013-03-17 15:58:00,
2013-03-17 12:00:00,65.2,44.0,30.00,North,0,1.6,1.6,46,0.00,,,0.00,VWS V14.01,2013-03-17 16:00:00,
2013-03-17 12:03:00,65.2,44.0,30.00,North,0,1.6,1.6,46,0.00,,,0.00,VWS V14.01,2013-03-17 16:03:00,
2013-03-17 12:08:00,65.1,43.2,29.97,North,0,1.6,1.6,45,0.00,,,0.00,VWS V14.01,2013-03-17 16:08:00,
2013-03-17 12:13:00,65.1,43.2,29.97,North,0,1.6,1.6,45,0.00,,,0.00,VWS V14.01,2013-03-17 16:13:00,
2013-03-17 12:15:00,65.2,43.4,29.97,North,0,1.6,1.6,45,0.00,,,0.00,VWS V14.01,2013-03-17 16:15:00,
2013-03-17 12:18:00,65.6,43.1,29.97,North,0,1.6,1.6,44,0.00,,,0.00,VWS V14.01,2013-03-17 16:18:00,
2013-03-17 12:23:00,65.9,43.4,29.97,North,0,1.6,1.6,44,0.00,,,0.00,VWS V14.01,2013-03-17 16:23:00,
2013-03-17 12:28:00,65.8,43.9,29.97,North,0,1.6,1.6,45,0.00,,,0.00,VWS V14.01,2013-03-17 16:28:00,
2013-03-17 12:33:00,65.9,43.4,29.97,North,0,1.6,1.6,44,0.00,,,0.00,VWS V14.01,2013-03-17 16:33:00,
2013-03-17 12:38:00,66.5,43.3,29.97,North,0,1.6,1.6,43,0.00,,,0.00,VWS V14.01,2013-03-17 16:38:00,
2013-03-17 12:43:00,66.1,43.0,29.97,North,0,1.6,1.6,43,0.00,,,0.00,VWS V14.01,2013-03-17 16:43:00,
2013-03-17 12:45:00,66.1,43.0,29.97,North,0,1.6,1.6,43,0.00,,,0.00,VWS V14.01,2013-03-17 16:45:00,
2013-03-17 12:48:00,66.1,43.6,29.97,North,0,1.6,1.6,44,0.00,,,0.00,VWS V14.01,2013-03-17 16:48:00,
2013-03-17 12:53:00,66.7,42.9,29.97,North,0,1.6,1.6,42,0.00,,,0.00,VWS V14.01,2013-03-17 16:53:00,
2013-03-17 12:58:00,66.3,42.6,29.97,North,0,1.6,1.6,42,0.00,,,0.00,VWS V14.01,2013-03-17 16:58:00,
2013-03-17 13:03:00,65.2,41.6,29.97,North,0,1.6,1.6,42,0.00,,,0.00,VWS V14.01,2013-03-17 17:03:00,
2013-03-17 13:08:00,65.1,41.4,29.97,NW,315,4.3,4.3,42,0.00,,,0.00,VWS V14.01,2013-03-17 17:08:00,
2013-03-17 13:13:00,65.1,41.4,29.97,NW,315,4.3,4.3,42,0.00,,,0.00,VWS V14.01,2013-03-17 17:13:00,
2013-03-17 13:15:00,65.1,41.4,29.97,NW,315,4.3,4.3,42,0.00,,,0.00,VWS V14.01,2013-03-17 17:15:00,
2013-03-17 13:18:00,65.8,42.1,29.97,North,0,2.0,6.0,42,0.00,,,0.00,VWS V14.01,2013-03-17 17:18:00,
2013-03-17 13:23:00,66.5,42.1,29.97,SSE,158,1.6,6.0,41,0.00,,,0.00,VWS V14.01,2013-03-17 17:23:00,
2013-03-17 13:28:00,67.2,42.1,29.97,South,180,6.0,6.0,40,0.00,,,0.00,VWS V14.01,2013-03-17 17:28:00,
2013-03-17 13:30:00,67.0,42.6,29.97,South,180,2.0,7.4,41,0.00,,,0.00,VWS V14.01,2013-03-17 17:30:00,
2013-03-17 13:33:00,66.5,42.1,29.97,WNW,292,3.6,6.3,41,0.00,,,0.00,VWS V14.01,2013-03-17 17:33:00,
2013-03-17 13:38:00,66.3,41.3,29.97,NNW,338,2.0,6.3,40,0.00,,,0.00,VWS V14.01,2013-03-17 17:38:00,
2013-03-17 13:43:00,66.5,41.5,29.97,West,270,3.4,6.3,40,0.00,,,0.00,VWS V14.01,2013-03-17 17:43:00,
2013-03-17 13:48:00,66.8,41.8,29.97,WSW,248,2.5,6.3,40,0.00,,,0.00,VWS V14.01,2013-03-17 17:48:00,
2013-03-17 13:53:00,68.3,43.1,29.94,SE,135,3.6,6.3,40,0.00,,,0.00,VWS V14.01,2013-03-17 17:53:00,
2013-03-17 13:58:00,67.8,41.9,29.94,North,0,1.3,6.3,39,0.00,,,0.00,VWS V14.01,2013-03-17 17:58:00,
2013-03-17 14:03:00,67.6,41.1,29.94,South,180,2.5,6.3,38,0.00,,,0.00,VWS V14.01,2013-03-17 18:03:00,
2013-03-17 14:08:00,67.4,40.9,29.94,SSW,202,2.9,6.3,38,0.00,,,0.00,VWS V14.01,2013-03-17 18:08:00,
2013-03-17 14:13:00,67.2,40.8,29.94,SSW,202,2.9,6.3,38,0.00,,,0.00,VWS V14.01,2013-03-17 18:13:00,
2013-03-17 14:15:00,67.0,40.6,29.94,SSW,202,2.9,6.3,38,0.00,,,0.00,VWS V14.01,2013-03-17 18:15:00,
2013-03-17 14:18:00,67.4,40.9,29.94,SSW,202,5.8,5.8,38,0.00,,,0.00,VWS V14.01,2013-03-17 18:18:00,
2013-03-17 14:23:00,67.4,40.9,29.94,SSE,158,3.1,5.8,38,0.00,,,0.00,VWS V14.01,2013-03-17 18:23:00,
2013-03-17 14:28:00,67.6,41.1,29.94,ESE,112,2.9,5.8,38,0.00,,,0.00,VWS V14.01,2013-03-17 18:28:00,
2013-03-17 14:30:00,67.6,41.1,29.94,ESE,112,2.9,5.8,38,0.00,,,0.00,VWS V14.01,2013-03-17 18:30:00,
2013-03-17 14:33:00,67.4,40.9,29.94,SE,135,2.5,2.9,38,0.00,,,0.00,VWS V14.01,2013-03-17 18:33:00,
2013-03-17 14:38:00,67.4,41.6,29.94,NW,315,4.7,4.7,39,0.00,,,0.00,VWS V14.01,2013-03-17 18:38:00,
2013-03-17 14:43:00,67.6,41.1,29.94,NW,315,4.3,4.7,38,0.00,,,0.00,VWS V14.01,2013-03-17 18:43:00,
2013-03-17 14:45:00,67.8,41.2,29.94,NW,315,4.3,4.7,38,0.00,,,0.00,VWS V14.01,2013-03-17 18:45:00,
2013-03-17 14:48:00,68.5,41.9,29.94,NW,315,4.3,4.3,38,0.00,,,0.00,VWS V14.01,2013-03-17 18:48:00,
2013-03-17 14:53:00,67.8,41.2,29.91,NW,315,4.3,4.3,38,0.00,,,0.00,VWS V14.01,2013-03-17 18:53:00,
2013-03-17 14:58:00,67.2,40.8,29.91,NW,315,3.8,4.3,38,0.00,,,0.00,VWS V14.01,2013-03-17 18:58:00,
2013-03-17 15:00:00,67.4,40.9,29.91,NW,315,5.4,5.4,38,0.00,,,0.00,VWS V14.01,2013-03-17 19:00:00,
2013-03-17 15:03:00,67.0,40.6,29.91,NNW,338,6.5,6.5,38,0.00,,,0.00,VWS V14.01,2013-03-17 19:03:00,
2013-03-17 15:08:00,67.4,40.9,29.91,WNW,292,3.8,6.5,38,0.00,,,0.00,VWS V14.01,2013-03-17 19:08:00,
2013-03-17 15:13:00,67.8,41.2,29.91,NNW,338,1.1,6.5,38,0.00,,,0.00,VWS V14.01,2013-03-17 19:13:00,
2013-03-17 15:15:00,67.8,41.2,29.91,SSE,158,2.2,6.5,38,0.00,,,0.00,VWS V14.01,2013-03-17 19:15:00,
2013-03-17 15:18:00,67.0,40.6,29.91,West,270,1.6,5.6,38,0.00,,,0.00,VWS V14.01,2013-03-17 19:18:00,
2013-03-17 15:23:00,67.0,40.6,29.91,NNW,338,2.5,5.6,38,0.00,,,0.00,VWS V14.01,2013-03-17 19:23:00,
2013-03-17 15:28:00,67.4,40.9,29.91,WNW,292,2.0,5.6,38,0.00,,,0.00,VWS V14.01,2013-03-17 19:28:00,
2013-03-17 15:30:00,67.4,40.9,29.91,WNW,292,2.0,5.6,38,0.00,,,0.00,VWS V14.01,2013-03-17 19:30:00,
2013-03-17 15:33:00,67.0,40.6,29.91,WNW,292,2.0,2.0,38,0.00,,,0.00,VWS V14.01,2013-03-17 19:33:00,
2013-03-17 15:38:00,66.7,40.3,29.91,WNW,292,2.0,2.0,38,0.00,,,0.00,VWS V14.01,2013-03-17 19:38:00,
2013-03-17 15:43:00,66.5,40.8,29.91,NNW,338,3.1,4.3,39,0.00,,,0.00,VWS V14.01,2013-03-17 19:43:00,
2013-03-17 15:45:00,66.7,41.0,29.91,NNW,338,2.0,4.3,39,0.00,,,0.00,VWS V14.01,2013-03-17 19:45:00,
2013-03-17 15:48:00,66.7,41.0,29.91,East,90,1.1,3.6,39,0.00,,,0.00,VWS V14.01,2013-03-17 19:48:00,
2013-03-17 15:53:00,66.8,40.5,29.91,NNW,338,4.3,4.3,38,0.00,,,0.00,VWS V14.01,2013-03-17 19:53:00,
2013-03-17 15:58:00,66.8,40.5,29.91,WSW,248,2.0,8.1,38,0.00,,,0.00,VWS V14.01,2013-03-17 19:58:00,
2013-03-17 16:00:00,66.8,40.5,29.91,WSW,248,2.0,8.1,38,0.00,,,0.00,VWS V14.01,2013-03-17 20:00:00,
2013-03-17 16:03:00,66.8,40.5,29.91,NNW,338,2.9,2.9,38,0.00,,,0.00,VWS V14.01,2013-03-17 20:03:00,
2013-03-17 16:08:00,66.7,40.3,29.91,WNW,292,5.6,6.0,38,0.00,,,0.00,VWS V14.01,2013-03-17 20:08:00,
2013-03-17 16:13:00,66.3,40.0,29.91,NW,315,4.3,6.3,38,0.00,,,0.00,VWS V14.01,2013-03-17 20:13:00,
2013-03-17 16:15:00,66.5,40.8,29.91,NW,315,4.3,6.3,39,0.00,,,0.00,VWS V14.01,2013-03-17 20:15:00,
2013-03-17 16:18:00,66.5,40.1,29.91,ESE,112,2.2,4.3,38,0.00,,,0.00,VWS V14.01,2013-03-17 20:18:00,
2013-03-17 16:23:00,66.7,41.0,29.91,ESE,112,2.2,4.3,39,0.00,,,0.00,VWS V14.01,2013-03-17 20:23:00,
2013-03-17 16:28:00,66.7,41.0,29.91,ESE,112,2.2,4.3,39,0.00,,,0.00,VWS V14.01,2013-03-17 20:28:00,
2013-03-17 16:30:00,66.7,41.0,29.91,ESE,112,2.2,4.3,39,0.00,,,0.00,VWS V14.01,2013-03-17 20:30:00,
2013-03-17 16:33:00,66.5,40.8,29.91,NNW,338,3.6,3.6,39,0.00,,,0.00,VWS V14.01,2013-03-17 20:33:00,
2013-03-17 16:38:00,66.3,40.6,29.91,NNW,338,3.6,3.6,39,0.00,,,0.00,VWS V14.01,2013-03-17 20:38:00,
2013-03-17 16:43:00,65.8,40.2,29.91,NNW,338,2.7,3.6,39,0.00,,,0.00,VWS V14.01,2013-03-17 20:43:00,
2013-03-17 16:45:00,65.8,40.2,29.91,NNW,338,2.7,3.6,39,0.00,,,0.00,VWS V14.01,2013-03-17 20:45:00,
2013-03-17 16:48:00,65.9,40.3,29.91,SSW,202,2.2,2.9,39,0.00,,,0.00,VWS V14.01,2013-03-17 20:48:00,
2013-03-17 16:53:00,65.4,39.8,29.91,South,180,2.7,4.5,39,0.00,,,0.00,VWS V14.01,2013-03-17 20:53:00,
2013-03-17 16:58:00,65.2,40.3,29.91,NNW,338,2.7,4.5,40,0.00,,,0.00,VWS V14.01,2013-03-17 20:58:00,
2013-03-17 17:00:00,65.2,39.7,29.91,NNW,338,2.7,4.5,39,0.00,,,0.00,VWS V14.01,2013-03-17 21:00:00,
2013-03-17 17:03:00,65.1,40.2,29.91,NNW,338,3.4,3.4,40,0.00,,,0.00,VWS V14.01,2013-03-17 21:03:00,
2013-03-17 17:08:00,64.9,40.0,29.91,WNW,292,4.3,4.3,40,0.00,,,0.00,VWS V14.01,2013-03-17 21:08:00,
2013-03-17 17:13:00,65.1,40.2,29.91,WNW,292,4.3,4.3,40,0.00,,,0.00,VWS V14.01,2013-03-17 21:13:00,
2013-03-17 17:15:00,65.1,40.2,29.91,WNW,292,4.3,4.3,40,0.00,,,0.00,VWS V14.01,2013-03-17 21:15:00,
2013-03-17 17:18:00,65.1,40.2,29.91,WNW,292,4.3,4.3,40,0.00,,,0.00,VWS V14.01,2013-03-17 21:18:00,
2013-03-17 17:23:00,64.9,40.0,29.91,WNW,292,3.8,4.3,40,0.00,,,0.00,VWS V14.01,2013-03-17 21:23:00,
2013-03-17 17:28:00,64.9,40.0,29.91,NNW,338,2.5,4.3,40,0.00,,,0.00,VWS V14.01,2013-03-17 21:28:00,
2013-03-17 17:30:00,64.9,40.0,29.91,NNW,338,2.5,4.3,40,0.00,,,0.00,VWS V14.01,2013-03-17 21:30:00,
2013-03-17 17:33:00,64.5,39.7,29.91,NNW,338,2.5,2.5,40,0.00,,,0.00,VWS V14.01,2013-03-17 21:33:00,
2013-03-17 17:38:00,64.7,39.8,29.91,NNW,338,2.5,2.5,40,0.00,,,0.00,VWS V14.01,2013-03-17 21:38:00,
2013-03-17 17:43:00,64.5,39.7,29.91,NNW,338,2.5,2.5,40,0.00,,,0.00,VWS V14.01,2013-03-17 21:43:00,
2013-03-17 17:45:00,64.5,39.7,29.91,NNW,338,2.5,2.5,40,0.00,,,0.00,VWS V14.01,2013-03-17 21:45:00,
2013-03-17 17:48:00,64.3,39.5,29.91,NNW,338,2.5,2.5,40,0.00,,,0.00,VWS V14.01,2013-03-17 21:48:00,
2013-03-17 17:53:00,64.5,39.7,29.91,NNW,338,2.5,2.5,40,0.00,,,0.00,VWS V14.01,2013-03-17 21:53:00,
2013-03-17 17:58:00,64.7,39.8,29.91,South,180,2.0,2.5,40,0.00,,,0.00,VWS V14.01,2013-03-17 21:58:00,
2013-03-17 18:00:00,64.7,39.8,29.91,South,180,2.0,2.5,40,0.00,,,0.00,VWS V14.01,2013-03-17 22:00:00,
2013-03-17 18:03:00,64.7,39.8,29.91,South,180,2.0,2.0,40,0.00,,,0.00,VWS V14.01,2013-03-17 22:03:00,
2013-03-17 18:08:00,64.3,39.5,29.91,South,180,2.0,2.0,40,0.00,,,0.00,VWS V14.01,2013-03-17 22:08:00,
2013-03-17 18:13:00,64.2,39.4,29.91,South,180,2.0,2.0,40,0.00,,,0.00,VWS V14.01,2013-03-17 22:13:00,
2013-03-17 18:15:00,64.2,39.3,29.91,South,180,2.0,2.0,40,0.00,,,0.00,VWS V14.01,2013-03-17 22:15:00,
2013-03-17 18:18:00,64.0,39.2,29.91,South,180,2.0,2.0,40,0.00,,,0.00,VWS V14.01,2013-03-17 22:18:00,
2013-03-17 18:23:00,63.8,39.0,29.94,NNW,338,2.5,2.5,40,0.00,,,0.00,VWS V14.01,2013-03-17 22:23:00,
2013-03-17 18:28:00,63.6,38.9,29.94,WNW,292,3.8,3.8,40,0.00,,,0.00,VWS V14.01,2013-03-17 22:28:00,
2013-03-17 18:30:00,63.6,38.9,29.94,WNW,292,3.8,3.8,40,0.00,,,0.00,VWS V14.01,2013-03-17 22:30:00,
2013-03-17 18:33:00,63.4,38.7,29.94,WNW,292,3.8,3.8,40,0.00,,,0.00,VWS V14.01,2013-03-17 22:33:00,
2013-03-17 18:38:00,63.4,38.7,29.91,WNW,292,3.8,3.8,40,0.00,,,0.00,VWS V14.01,2013-03-17 22:38:00,
2013-03-17 18:43:00,63.2,38.5,29.91,WNW,292,3.8,3.8,40,0.00,,,0.00,VWS V14.01,2013-03-17 22:43:00,
2013-03-17 18:45:00,63.2,38.5,29.91,WNW,292,3.8,3.8,40,0.00,,,0.00,VWS V14.01,2013-03-17 22:45:00,
2013-03-17 18:48:00,63.1,38.4,29.91,WNW,292,3.8,3.8,40,0.00,,,0.00,VWS V14.01,2013-03-17 22:48:00,
2013-03-17 18:53:00,62.9,38.2,29.91,WNW,292,3.8,3.8,40,0.00,,,0.00,VWS V14.01,2013-03-17 22:53:00,
2013-03-17 18:58:00,62.7,38.1,29.91,WNW,292,3.8,3.8,40,0.00,,,0.00,VWS V14.01,2013-03-17 22:58:00,
2013-03-17 19:00:00,62.7,38.1,29.91,WNW,292,3.8,3.8,40,0.00,,,0.00,VWS V14.01,2013-03-17 23:00:00,
2013-03-17 19:03:00,62.7,38.1,29.91,WNW,292,3.8,3.8,40,0.00,,,0.00,VWS V14.01,2013-03-17 23:03:00,
2013-03-17 19:08:00,62.5,38.5,29.91,WNW,292,3.8,3.8,41,0.00,,,0.00,VWS V14.01,2013-03-17 23:08:00,
2013-03-17 19:13:00,62.3,37.7,29.94,WNW,292,3.8,3.8,40,0.00,,,0.00,VWS V14.01,2013-03-17 23:13:00,
2013-03-17 19:15:00,62.3,37.7,29.94,WNW,292,3.8,3.8,40,0.00,,,0.00,VWS V14.01,2013-03-17 23:15:00,
2013-03-17 19:18:00,61.8,37.9,29.94,SSW,202,0.0,3.8,41,0.00,,,0.00,VWS V14.01,2013-03-17 23:18:00,
2013-03-17 19:23:00,61.3,37.4,29.94,SSW,202,0.0,3.8,41,0.00,,,0.00,VWS V14.01,2013-03-17 23:23:00,
2013-03-17 19:28:00,61.1,37.2,29.94,South,180,0.0,3.8,41,0.00,,,0.00,VWS V14.01,2013-03-17 23:28:00,
2013-03-17 19:30:00,61.1,37.2,29.94,South,180,0.0,3.8,41,0.00,,,0.00,VWS V14.01,2013-03-17 23:30:00,
2013-03-17 19:33:00,60.5,37.4,29.94,South,180,0.0,0.0,42,0.00,,,0.00,VWS V14.01,2013-03-17 23:33:00,
2013-03-17 19:38:00,60.4,37.2,29.94,South,180,0.0,0.0,42,0.00,,,0.00,VWS V14.01,2013-03-17 23:38:00,
2013-03-17 19:43:00,59.3,37.4,29.94,South,180,0.0,0.0,44,0.00,,,0.00,VWS V14.01,2013-03-17 23:43:00,
2013-03-17 19:45:00,59.1,37.2,29.94,South,180,0.0,0.0,44,0.00,,,0.00,VWS V14.01,2013-03-17 23:45:00,
2013-03-17 19:48:00,58.6,37.9,29.94,South,180,0.0,0.0,46,0.00,,,0.00,VWS V14.01,2013-03-17 23:48:00,
2013-03-17 19:53:00,57.8,38.3,29.94,SSE,158,1.6,1.6,48,0.00,,,0.00,VWS V14.01,2013-03-17 23:53:00,
2013-03-17 19:58:00,57.0,38.5,29.94,South,180,0.0,1.6,50,0.00,,,0.00,VWS V14.01,2013-03-17 23:58:00,
2013-03-17 20:00:00,57.0,38.5,29.94,South,180,0.0,1.6,50,0.00,,,0.00,VWS V14.01,2013-03-18 00:00:00,
2013-03-17 20:03:00,56.4,38.0,29.94,South,180,2.0,2.9,50,0.00,,,0.00,VWS V14.01,2013-03-18 00:03:00,
2013-03-17 20:08:00,56.2,38.4,29.94,SSE,158,2.0,2.9,51,0.00,,,0.00,VWS V14.01,2013-03-18 00:08:00,
2013-03-17 20:13:00,56.0,38.7,29.94,SSE,158,2.9,2.9,52,0.00,,,0.00,VWS V14.01,2013-03-18 00:13:00,
2013-03-17 20:15:00,55.9,38.5,29.94,SSE,158,1.1,2.9,52,0.00,,,0.00,VWS V14.01,2013-03-18 00:15:00,
2013-03-17 20:18:00,55.0,37.7,29.94,SSE,158,0.0,1.1,52,0.00,,,0.00,VWS V14.01,2013-03-18 00:18:00,
2013-03-17 20:23:00,55.0,38.2,29.94,South,180,1.3,2.5,53,0.00,,,0.00,VWS V14.01,2013-03-18 00:23:00,
2013-03-17 20:28:00,54.4,38.2,29.94,South,180,0.0,2.5,54,0.00,,,0.00,VWS V14.01,2013-03-18 00:28:00,
2013-03-17 20:30:00,54.4,38.2,29.94,South,180,0.0,2.5,54,0.00,,,0.00,VWS V14.01,2013-03-18 00:30:00,
2013-03-17 20:33:00,54.1,38.3,29.94,South,180,0.0,0.0,55,0.00,,,0.00,VWS V14.01,2013-03-18 00:33:00,
2013-03-17 20:38:00,53.5,37.8,29.97,South,180,3.4,3.4,55,0.00,,,0.00,VWS V14.01,2013-03-18 00:38:00,
2013-03-17 20:43:00,53.7,38.4,29.97,South,180,3.4,3.4,56,0.00,,,0.00,VWS V14.01,2013-03-18 00:43:00,
2013-03-17 20:45:00,53.7,38.4,29.97,South,180,3.4,3.4,56,0.00,,,0.00,VWS V14.01,2013-03-18 00:45:00,
2013-03-17 20:48:00,53.5,38.7,29.97,South,180,3.4,3.4,57,0.00,,,0.00,VWS V14.01,2013-03-18 00:48:00,
2013-03-17 20:53:00,53.2,38.3,29.97,South,180,3.4,3.4,57,0.00,,,0.00,VWS V14.01,2013-03-18 00:53:00,
2013-03-17 20:58:00,53.0,38.6,29.97,WNW,292,0.0,3.4,58,0.00,,,0.00,VWS V14.01,2013-03-18 00:58:00,
2013-03-17 21:00:00,53.0,38.6,29.97,WNW,292,0.0,3.4,58,0.00,,,0.00,VWS V14.01,2013-03-18 01:00:00,
2013-03-17 21:03:00,52.6,38.3,29.97,SSE,158,2.5,2.5,58,0.00,,,0.00,VWS V14.01,2013-03-18 01:03:00,
2013-03-17 21:08:00,52.3,38.4,29.97,SE,135,0.0,2.5,59,0.00,,,0.00,VWS V14.01,2013-03-18 01:08:00,
2013-03-17 21:13:00,52.3,38.8,29.97,SE,135,0.0,2.5,60,0.00,,,0.00,VWS V14.01,2013-03-18 01:13:00,
2013-03-17 21:15:00,52.3,38.8,29.97,SE,135,0.0,2.5,60,0.00,,,0.00,VWS V14.01,2013-03-18 01:15:00,
2013-03-17 21:18:00,52.5,39.0,29.97,WSW,248,0.0,0.0,60,0.00,,,0.00,VWS V14.01,2013-03-18 01:18:00,
2013-03-17 21:23:00,52.3,38.8,29.97,WSW,248,0.0,0.0,60,0.00,,,0.00,VWS V14.01,2013-03-18 01:23:00,
2013-03-17 21:28:00,51.9,38.5,29.97,WSW,248,0.0,0.0,60,0.00,,,0.00,VWS V14.01,2013-03-18 01:28:00,
2013-03-17 21:33:00,51.7,38.7,29.97,WSW,248,0.0,0.0,61,0.00,,,0.00,VWS V14.01,2013-03-18 01:33:00,
2013-03-17 21:38:00,51.9,38.9,29.97,WSW,248,0.0,0.0,61,0.00,,,0.00,VWS V14.01,2013-03-18 01:38:00,
2013-03-17 21:43:00,53.0,39.5,29.97,WSW,248,0.0,0.0,60,0.00,,,0.00,VWS V14.01,2013-03-18 01:43:00,
2013-03-17 21:45:00,53.0,39.5,29.97,WSW,248,0.0,0.0,60,0.00,,,0.00,VWS V14.01,2013-03-18 01:45:00,
2013-03-17 21:48:00,53.3,39.4,29.97,WSW,248,0.0,0.0,59,0.00,,,0.00,VWS V14.01,2013-03-18 01:48:00,
2013-03-17 21:53:00,53.3,39.4,29.97,WSW,248,0.0,0.0,59,0.00,,,0.00,VWS V14.01,2013-03-18 01:53:00,
2013-03-17 21:58:00,54.1,39.6,29.97,WSW,248,0.0,0.0,58,0.00,,,0.00,VWS V14.01,2013-03-18 01:58:00,
2013-03-17 22:00:00,54.1,39.6,29.97,WSW,248,0.0,0.0,58,0.00,,,0.00,VWS V14.01,2013-03-18 02:00:00,
2013-03-17 22:03:00,57.5,41.0,29.97,WSW,248,0.0,0.0,54,0.00,,,0.00,VWS V14.01,2013-03-18 02:03:00,
2013-03-17 22:08:00,58.4,40.9,29.97,WSW,248,0.0,0.0,52,0.00,,,0.00,VWS V14.01,2013-03-18 02:08:00,
2013-03-17 22:13:00,59.1,41.0,29.97,SSE,158,4.0,5.6,51,0.00,,,0.00,VWS V14.01,2013-03-18 02:13:00,
2013-03-17 22:15:00,59.3,40.7,29.97,SSE,158,2.9,5.6,50,0.00,,,0.00,VWS V14.01,2013-03-18 02:15:00,
2013-03-17 22:18:00,59.7,41.0,29.97,SSE,158,4.0,4.0,50,0.00,,,0.00,VWS V14.01,2013-03-18 02:18:00,
2013-03-17 22:23:00,59.7,41.0,29.97,SSE,158,2.5,4.0,50,0.00,,,0.00,VWS V14.01,2013-03-18 02:23:00,
2013-03-17 22:28:00,59.5,40.8,29.97,SSE,158,2.0,4.0,50,0.00,,,0.00,VWS V14.01,2013-03-18 02:28:00,
2013-03-17 22:30:00,59.7,41.0,29.97,SSE,158,2.0,4.0,50,0.00,,,0.00,VWS V14.01,2013-03-18 02:30:00,
2013-03-17 22:33:00,59.1,40.5,29.97,SSE,158,1.1,3.6,50,0.00,,,0.00,VWS V14.01,2013-03-18 02:33:00,
2013-03-17 22:38:00,58.8,40.2,29.97,SSE,158,2.0,3.6,50,0.00,,,0.00,VWS V14.01,2013-03-18 02:38:00,
2013-03-17 22:43:00,58.8,40.2,29.97,SSE,158,0.0,3.6,50,0.00,,,0.00,VWS V14.01,2013-03-18 02:43:00,
2013-03-17 22:45:00,58.8,40.2,29.97,SSE,158,0.0,3.6,50,0.00,,,0.00,VWS V14.01,2013-03-18 02:45:00,
2013-03-17 22:48:00,58.0,40.0,29.97,South,180,1.3,1.3,51,0.00,,,0.00,VWS V14.01,2013-03-18 02:48:00,
2013-03-17 22:53:00,57.7,39.7,29.94,SSE,158,2.5,2.5,51,0.00,,,0.00,VWS V14.01,2013-03-18 02:53:00,
2013-03-17 22:58:00,56.2,38.9,29.94,SSE,158,2.9,3.6,52,0.00,,,0.00,VWS V14.01,2013-03-18 02:58:00,
2013-03-17 23:00:00,56.8,39.4,29.94,SSE,158,2.9,3.6,52,0.00,,,0.00,VWS V14.01,2013-03-18 03:00:00,
2013-03-17 23:03:00,57.3,39.4,29.94,SSE,158,3.1,4.0,51,0.00,,,0.00,VWS V14.01,2013-03-18 03:03:00,
2013-03-17 23:08:00,57.1,39.7,29.94,South,180,1.3,6.5,52,0.00,,,0.00,VWS V14.01,2013-03-18 03:08:00,
2013-03-17 23:13:00,57.7,40.2,29.97,SSW,202,3.1,6.5,52,0.00,,,0.00,VWS V14.01,2013-03-18 03:13:00,
2013-03-17 23:18:00,58.4,40.4,29.97,SSE,158,1.6,6.5,51,0.00,,,0.00,VWS V14.01,2013-03-18 03:18:00,
2013-03-17 23:23:00,58.8,40.7,29.97,SSW,202,2.7,6.5,51,0.00,,,0.00,VWS V14.01,2013-03-18 03:23:00,
2013-03-17 23:28:00,58.6,40.5,29.97,SSE,158,2.5,6.5,51,0.00,,,0.00,VWS V14.01,2013-03-18 03:28:00,
2013-03-17 23:30:00,58.6,40.5,29.97,SSE,158,2.5,6.5,51,0.00,,,0.00,VWS V14.01,2013-03-18 03:30:00,
2013-03-17 23:33:00,58.6,40.5,29.97,South,180,2.7,2.7,51,0.00,,,0.00,VWS V14.01,2013-03-18 03:33:00,
2013-03-17 23:38:00,57.8,39.9,29.97,South,180,3.4,3.4,51,0.00,,,0.00,VWS V14.01,2013-03-18 03:38:00,
2013-03-17 23:43:00,57.7,39.7,29.94,SSW,202,0.0,3.4,51,0.00,,,0.00,VWS V14.01,2013-03-18 03:43:00,
2013-03-17 23:45:00,57.3,39.9,29.94,SSE,158,2.9,3.4,52,0.00,,,0.00,VWS V14.01,2013-03-18 03:45:00,
2013-03-17 23:48:00,57.5,40.0,29.94,SE,135,3.8,3.8,52,0.00,,,0.00,VWS V14.01,2013-03-18 03:48:00,
2013-03-17 23:53:00,57.7,40.2,29.94,SSE,158,3.1,3.8,52,0.00,,,0.00,VWS V14.01,2013-03-18 03:53:00,
2013-03-17 23:58:00,57.3,39.9,29.97,South,180,2.2,3.8,52,0.00,,,0.00,VWS V14.01,2013-03-18 03:58:00,